sensor_id;sensor_type;location;lat;lon;timestamp;pressure;altitude;pressure_sealevel;temperature;humidity
76358;BME280;65185;21.060;105.826;2023-01-10T00:00:38;101896.31;;;19.55;100.00
76358;BME280;65185;21.060;105.826;2023-01-10T00:03:09;101901.78;;;19.55;100.00
76358;BME280;65185;21.060;105.826;2023-01-10T00:05:43;101897.41;;;19.54;100.00
76358;BME280;65185;21.060;105.826;2023-01-10T00:08:14;101902.31;;;19.52;100.00
76358;BME280;65185;21.060;105.826;2023-01-10T00:10:42;101902.31;;;19.52;100.00
76358;BME280;65185;21.060;105.826;2023-01-10T00:13:16;101910.50;;;19.52;100.00
76358;BME280;65185;21.060;105.826;2023-01-10T00:15:50;101915.94;;;19.52;100.00
76358;BME280;65185;21.060;105.826;2023-01-10T00:18:17;101909.41;;;19.53;100.00
76358;BME280;65185;21.060;105.826;2023-01-10T00:20:45;101908.81;;;19.56;100.00
76358;BME280;65185;21.060;105.826;2023-01-10T00:23:12;101908.25;;;19.59;100.00
76358;BME280;65185;21.060;105.826;2023-01-10T00:25:39;101911.53;;;19.61;100.00
76358;BME280;65185;21.060;105.826;2023-01-10T00:28:07;101917.47;;;19.63;100.00
76358;BME280;65185;21.060;105.826;2023-01-10T00:30:43;101931.91;;;19.64;100.00
76358;BME280;65185;21.060;105.826;2023-01-10T00:33:13;101927.00;;;19.66;100.00
76358;BME280;65185;21.060;105.826;2023-01-10T00:35:46;101932.16;;;19.67;100.00
76358;BME280;65185;21.060;105.826;2023-01-10T00:38:14;101920.16;;;19.68;100.00
76358;BME280;65185;21.060;105.826;2023-01-10T00:40:40;101934.88;;;19.67;100.00
76358;BME280;65185;21.060;105.826;2023-01-10T00:43:09;101934.88;;;19.67;100.00
76358;BME280;65185;21.060;105.826;2023-01-10T00:45:54;101936.50;;;19.68;100.00
76358;BME280;65185;21.060;105.826;2023-01-10T00:48:22;101941.13;;;19.68;100.00
76358;BME280;65185;21.060;105.826;2023-01-10T00:50:49;101939.22;;;19.68;100.00
76358;BME280;65185;21.060;105.826;2023-01-10T00:53:16;101947.66;;;19.72;100.00
76358;BME280;65185;21.060;105.826;2023-01-10T00:55:43;101941.41;;;19.71;100.00
76358;BME280;65185;21.060;105.826;2023-01-10T00:58:11;101947.34;;;19.73;100.00
76358;BME280;65185;21.060;105.826;2023-01-10T01:00:39;101947.91;;;19.75;100.00
76358;BME280;65185;21.060;105.826;2023-01-10T01:03:06;101952.53;;;19.75;100.00
76358;BME280;65185;21.060;105.826;2023-01-10T01:05:39;101959.63;;;19.76;100.00
76358;BME280;65185;21.060;105.826;2023-01-10T01:08:07;101953.06;;;19.77;100.00
76358;BME280;65185;21.060;105.826;2023-01-10T01:10:34;101963.38;;;19.80;100.00
76358;BME280;65185;21.060;105.826;2023-01-10T01:13:14;101957.38;;;19.83;100.00
76358;BME280;65185;21.060;105.826;2023-01-10T01:15:42;101964.16;;;19.85;100.00
76358;BME280;65185;21.060;105.826;2023-01-10T01:18:11;101963.59;;;19.88;100.00
76358;BME280;65185;21.060;105.826;2023-01-10T01:20:39;101964.09;;;19.90;100.00
76358;BME280;65185;21.060;105.826;2023-01-10T01:23:07;101977.16;;;19.93;100.00
76358;BME280;65185;21.060;105.826;2023-01-10T01:25:34;101989.16;;;19.92;100.00
76358;BME280;65185;21.060;105.826;2023-01-10T01:28:01;101992.44;;;19.95;100.00
76358;BME280;65185;21.060;105.826;2023-01-10T01:30:28;101995.16;;;19.95;100.00
76358;BME280;65185;21.060;105.826;2023-01-10T01:32:55;101996.47;;;19.97;100.00
76358;BME280;65185;21.060;105.826;2023-01-10T01:35:22;101989.66;;;20.00;100.00
76358;BME280;65185;21.060;105.826;2023-01-10T01:37:50;101999.97;;;20.03;100.00
76358;BME280;65185;21.060;105.826;2023-01-10T01:40:19;101999.97;;;20.03;100.00
76358;BME280;65185;21.060;105.826;2023-01-10T01:42:47;102010.88;;;20.03;100.00
76358;BME280;65185;21.060;105.826;2023-01-10T01:53:01;102017.28;;;20.17;100.00
76358;BME280;65185;21.060;105.826;2023-01-10T01:55:30;102011.59;;;20.13;100.00
76358;BME280;65185;21.060;105.826;2023-01-10T01:58:01;102022.00;;;20.11;100.00
76358;BME280;65185;21.060;105.826;2023-01-10T02:00:29;102014.59;;;20.12;100.00
76358;BME280;65185;21.060;105.826;2023-01-10T02:02:57;102023.31;;;20.14;100.00
76358;BME280;65185;21.060;105.826;2023-01-10T02:05:26;102024.94;;;20.15;100.00
76358;BME280;65185;21.060;105.826;2023-01-10T02:07:56;102026.56;;;20.16;100.00
76358;BME280;65185;21.060;105.826;2023-01-10T02:13:21;102035.84;;;20.15;100.00
76358;BME280;65185;21.060;105.826;2023-01-10T02:15:49;102037.16;;;20.17;100.00
76358;BME280;65185;21.060;105.826;2023-01-10T02:18:16;102032.25;;;20.19;100.00
76358;BME280;65185;21.060;105.826;2023-01-10T02:21:17;102040.63;;;20.28;100.00
76358;BME280;65185;21.060;105.826;2023-01-10T02:33:13;102044.38;;;20.37;100.00
76358;BME280;65185;21.060;105.826;2023-01-10T02:38:31;102045.41;;;20.41;100.00
76358;BME280;65185;21.060;105.826;2023-01-10T02:41:28;102038.88;;;20.42;100.00
76358;BME280;65185;21.060;105.826;2023-01-10T02:44:21;102033.13;;;20.44;100.00
76358;BME280;65185;21.060;105.826;2023-01-10T02:46:50;102033.34;;;20.47;100.00
76358;BME280;65185;21.060;105.826;2023-01-10T02:49:17;102026.50;;;20.50;100.00
76358;BME280;65185;21.060;105.826;2023-01-10T02:51:44;102031.38;;;20.53;100.00
76358;BME280;65185;21.060;105.826;2023-01-10T02:54:24;102021.00;;;20.55;100.00
76358;BME280;65185;21.060;105.826;2023-01-10T02:56:57;102019.88;;;20.56;100.00
76358;BME280;65185;21.060;105.826;2023-01-10T03:10:58;102017.44;;;20.54;100.00
76358;BME280;65185;21.060;105.826;2023-01-10T03:13:56;102008.72;;;20.52;100.00
76358;BME280;65185;21.060;105.826;2023-01-10T03:16:26;102005.50;;;20.50;100.00
76358;BME280;65185;21.060;105.826;2023-01-10T03:19:03;102009.31;;;20.49;100.00
76358;BME280;65185;21.060;105.826;2023-01-10T03:21:33;102010.13;;;20.50;100.00
76358;BME280;65185;21.060;105.826;2023-01-10T03:24:06;102000.81;;;20.51;100.00
76358;BME280;65185;21.060;105.826;2023-01-10T03:26:55;102000.25;;;20.54;100.00
76358;BME280;65185;21.060;105.826;2023-01-10T03:32:34;101981.69;;;20.56;100.00
76358;BME280;65185;21.060;105.826;2023-01-10T03:35:02;101986.53;;;20.59;100.00
76358;BME280;65185;21.060;105.826;2023-01-10T03:40:29;101981.53;;;20.66;100.00
76358;BME280;65185;21.060;105.826;2023-01-10T03:43:15;101971.38;;;20.71;100.00
76358;BME280;65185;21.060;105.826;2023-01-10T03:46:29;101971.09;;;20.73;100.00
76358;BME280;65185;21.060;105.826;2023-01-10T03:48:59;101968.03;;;20.74;100.00
76358;BME280;65185;21.060;105.826;2023-01-10T03:51:36;101970.19;;;20.78;100.00
76358;BME280;65185;21.060;105.826;2023-01-10T03:54:04;101975.13;;;20.75;100.00
76358;BME280;65185;21.060;105.826;2023-01-10T03:56:41;101966.13;;;20.75;100.00
76358;BME280;65185;21.060;105.826;2023-01-10T03:59:09;101971.81;;;20.79;100.00
76358;BME280;65185;21.060;105.826;2023-01-10T04:01:36;101960.31;;;20.82;100.00
76358;BME280;65185;21.060;105.826;2023-01-10T04:04:03;101954.25;;;20.85;100.00
76358;BME280;65185;21.060;105.826;2023-01-10T04:06:30;101954.25;;;20.85;100.00
76358;BME280;65185;21.060;105.826;2023-01-10T04:08:56;101948.28;;;20.83;100.00
76358;BME280;65185;21.060;105.826;2023-01-10T04:14:45;101934.91;;;20.81;100.00
76358;BME280;65185;21.060;105.826;2023-01-10T04:17:13;101931.09;;;20.82;100.00
76358;BME280;65185;21.060;105.826;2023-01-10T04:19:50;101925.84;;;20.86;100.00
76358;BME280;65185;21.060;105.826;2023-01-10T04:22:25;101927.66;;;20.90;100.00
76358;BME280;65185;21.060;105.826;2023-01-10T04:24:55;101917.47;;;20.96;100.00
76358;BME280;65185;21.060;105.826;2023-01-10T04:27:28;101911.72;;;20.97;100.00
76358;BME280;65185;21.060;105.826;2023-01-10T04:29:55;101904.06;;;20.99;100.00
76358;BME280;65185;21.060;105.826;2023-01-10T04:32:22;101908.91;;;21.02;100.00
76358;BME280;65185;21.060;105.826;2023-01-10T04:34:49;101907.28;;;21.01;100.00
76358;BME280;65185;21.060;105.826;2023-01-10T04:37:16;101903.78;;;21.01;100.00
76358;BME280;65185;21.060;105.826;2023-01-10T04:39:43;101898.31;;;21.01;100.00
76358;BME280;65185;21.060;105.826;2023-01-10T04:42:10;101893.97;;;21.00;100.00
76358;BME280;65185;21.060;105.826;2023-01-10T04:44:37;101893.88;;;21.05;100.00
76358;BME280;65185;21.060;105.826;2023-01-10T04:47:04;101886.13;;;21.12;100.00
76358;BME280;65185;21.060;105.826;2023-01-10T04:49:31;101885.06;;;21.08;100.00
76358;BME280;65185;21.060;105.826;2023-01-10T04:51:58;101879.84;;;21.11;100.00
76358;BME280;65185;21.060;105.826;2023-01-10T04:54:25;101866.28;;;21.06;100.00
76358;BME280;65185;21.060;105.826;2023-01-10T04:56:52;101860.56;;;21.03;100.00
76358;BME280;65185;21.060;105.826;2023-01-10T04:59:22;101853.81;;;21.00;100.00
76358;BME280;65185;21.060;105.826;2023-01-10T05:01:58;101843.97;;;20.99;100.00
76358;BME280;65185;21.060;105.826;2023-01-10T05:04:35;101839.31;;;21.00;100.00
76358;BME280;65185;21.060;105.826;2023-01-10T05:07:02;101825.44;;;21.15;100.00
76358;BME280;65185;21.060;105.826;2023-01-10T05:09:29;101830.97;;;21.10;100.00
76358;BME280;65185;21.060;105.826;2023-01-10T05:11:56;101821.75;;;21.06;100.00
76358;BME280;65185;21.060;105.826;2023-01-10T05:14:23;101822.84;;;21.05;100.00
76358;BME280;65185;21.060;105.826;2023-01-10T05:16:50;101824.47;;;21.06;100.00
76358;BME280;65185;21.060;105.826;2023-01-10T05:19:16;101823.44;;;21.02;100.00
76358;BME280;65185;21.060;105.826;2023-01-10T05:21:43;101802.09;;;21.04;100.00
76358;BME280;65185;21.060;105.826;2023-01-10T05:24:10;101808.81;;;21.11;100.00
76358;BME280;65185;21.060;105.826;2023-01-10T05:26:36;101799.91;;;21.06;100.00
76358;BME280;65185;21.060;105.826;2023-01-10T05:29:03;101792.09;;;20.99;100.00
76358;BME280;65185;21.060;105.826;2023-01-10T05:31:29;101784.81;;;20.95;100.00
76358;BME280;65185;21.060;105.826;2023-01-10T05:33:56;101779.91;;;20.92;100.00
76358;BME280;65185;21.060;105.826;2023-01-10T05:36:22;101778.00;;;20.92;100.00
76358;BME280;65185;21.060;105.826;2023-01-10T05:38:49;101776.81;;;20.98;100.00
76358;BME280;65185;21.060;105.826;2023-01-10T05:41:15;101767.28;;;20.96;100.00
76358;BME280;65185;21.060;105.826;2023-01-10T05:43:42;101759.09;;;20.96;100.00
76358;BME280;65185;21.060;105.826;2023-01-10T05:46:09;101759.03;;;21.01;100.00
76358;BME280;65185;21.060;105.826;2023-01-10T05:48:36;101757.16;;;20.96;100.00
76358;BME280;65185;21.060;105.826;2023-01-10T05:51:02;101753.94;;;20.94;100.00
76358;BME280;65185;21.060;105.826;2023-01-10T05:53:35;101746.03;;;20.93;100.00
76358;BME280;65185;21.060;105.826;2023-01-10T05:56:01;101742.78;;;20.91;100.00
76358;BME280;65185;21.060;105.826;2023-01-10T05:58:29;101741.41;;;20.93;100.00
76358;BME280;65185;21.060;105.826;2023-01-10T06:00:56;101730.75;;;20.92;100.00
76358;BME280;65185;21.060;105.826;2023-01-10T06:03:24;101733.41;;;20.97;100.00
76358;BME280;65185;21.060;105.826;2023-01-10T06:05:54;101723.59;;;20.96;100.00
76358;BME280;65185;21.060;105.826;2023-01-10T06:08:21;101720.78;;;21.01;100.00
76358;BME280;65185;21.060;105.826;2023-01-10T06:10:48;101732.28;;;20.98;100.00
76358;BME280;65185;21.060;105.826;2023-01-10T06:13:15;101716.72;;;20.98;100.00
76358;BME280;65185;21.060;105.826;2023-01-10T06:15:42;101718.06;;;21.01;100.00
76358;BME280;65185;21.060;105.826;2023-01-10T06:18:09;101715.31;;;21.01;100.00
76358;BME280;65185;21.060;105.826;2023-01-10T06:20:36;101714.81;;;20.99;100.00
76358;BME280;65185;21.060;105.826;2023-01-10T06:23:06;101712.38;;;20.97;100.00
76358;BME280;65185;21.060;105.826;2023-01-10T06:25:35;101715.31;;;21.01;100.00
76358;BME280;65185;21.060;105.826;2023-01-10T06:28:08;101705.00;;;20.98;100.00
76358;BME280;65185;21.060;105.826;2023-01-10T06:30:35;101702.88;;;20.95;100.00
76358;BME280;65185;21.060;105.826;2023-01-10T06:33:03;101697.19;;;20.91;100.00
76358;BME280;65185;21.060;105.826;2023-01-10T06:35:30;101697.50;;;20.90;100.00
76358;BME280;65185;21.060;105.826;2023-01-10T06:37:57;101697.81;;;20.88;100.00
76358;BME280;65185;21.060;105.826;2023-01-10T06:40:25;101700.13;;;20.95;100.00
76358;BME280;65185;21.060;105.826;2023-01-10T06:42:51;101692.03;;;20.90;100.00
76358;BME280;65185;21.060;105.826;2023-01-10T06:45:19;101687.16;;;20.87;100.00
76358;BME280;65185;21.060;105.826;2023-01-10T06:47:45;101686.34;;;20.86;100.00
76358;BME280;65185;21.060;105.826;2023-01-10T06:50:12;101683.34;;;20.88;100.00
76358;BME280;65185;21.060;105.826;2023-01-10T06:52:39;101683.34;;;20.88;100.00
76358;BME280;65185;21.060;105.826;2023-01-10T06:55:07;101684.97;;;20.89;100.00
76358;BME280;65185;21.060;105.826;2023-01-10T06:57:33;101678.69;;;20.88;100.00
76358;BME280;65185;21.060;105.826;2023-01-10T07:00:06;101678.69;;;20.88;100.00
76358;BME280;65185;21.060;105.826;2023-01-10T07:02:33;101676.78;;;20.89;100.00
76358;BME280;65185;21.060;105.826;2023-01-10T07:04:59;101675.97;;;20.88;100.00
76358;BME280;65185;21.060;105.826;2023-01-10T07:07:26;101667.47;;;20.90;100.00
76358;BME280;65185;21.060;105.826;2023-01-10T07:09:53;101674.84;;;21.03;100.00
76358;BME280;65185;21.060;105.826;2023-01-10T07:12:19;101676.66;;;21.07;100.00
76358;BME280;65185;21.060;105.826;2023-01-10T07:14:46;101675.94;;;21.02;100.00
76358;BME280;65185;21.060;105.826;2023-01-10T07:17:13;101669.78;;;20.96;100.00
76358;BME280;65185;21.060;105.826;2023-01-10T07:19:39;101670.97;;;20.90;100.00
76358;BME280;65185;21.060;105.826;2023-01-10T07:22:06;101668.56;;;20.89;100.00
76358;BME280;65185;21.060;105.826;2023-01-10T07:24:32;101666.13;;;20.87;100.00
76358;BME280;65185;21.060;105.826;2023-01-10T07:27:00;101672.94;;;20.90;100.00
76358;BME280;65185;21.060;105.826;2023-01-10T07:29:26;101668.88;;;20.87;100.00
76358;BME280;65185;21.060;105.826;2023-01-10T07:31:53;101668.34;;;20.85;100.00
76358;BME280;65185;21.060;105.826;2023-01-10T07:34:19;101660.25;;;20.80;100.00
76358;BME280;65185;21.060;105.826;2023-01-10T07:36:46;101662.78;;;20.77;100.00
76358;BME280;65185;21.060;105.826;2023-01-10T07:39:13;101663.59;;;20.77;100.00
76358;BME280;65185;21.060;105.826;2023-01-10T07:41:39;101664.81;;;20.71;100.00
76358;BME280;65185;21.060;105.826;2023-01-10T07:44:09;101662.97;;;20.66;100.00
76358;BME280;65185;21.060;105.826;2023-01-10T07:46:36;101661.94;;;20.62;100.00
76358;BME280;65185;21.060;105.826;2023-01-10T07:49:03;101663.66;;;20.58;100.00
76358;BME280;65185;21.060;105.826;2023-01-10T07:51:33;101663.13;;;20.56;100.00
76358;BME280;65185;21.060;105.826;2023-01-10T07:53:59;101662.66;;;20.54;100.00
76358;BME280;65185;21.060;105.826;2023-01-10T07:56:26;101658.28;;;20.53;100.00
76358;BME280;65185;21.060;105.826;2023-01-10T07:58:57;101661.63;;;20.50;100.00
76358;BME280;65185;21.060;105.826;2023-01-10T08:01:23;101655.66;;;20.48;100.00
76358;BME280;65185;21.060;105.826;2023-01-10T08:03:51;101656.75;;;20.47;100.00
76358;BME280;65185;21.060;105.826;2023-01-10T08:06:17;101651.91;;;20.44;100.00
76358;BME280;65185;21.060;105.826;2023-01-10T08:08:44;101654.66;;;20.44;100.00
76358;BME280;65185;21.060;105.826;2023-01-10T08:11:11;101655.75;;;20.43;100.00
76358;BME280;65185;21.060;105.826;2023-01-10T08:13:37;101655.22;;;20.41;100.00
76358;BME280;65185;21.060;105.826;2023-01-10T08:16:05;101653.31;;;20.42;100.00
76358;BME280;65185;21.060;105.826;2023-01-10T08:18:32;101647.34;;;20.40;100.00
76358;BME280;65185;21.060;105.826;2023-01-10T08:20:59;101651.19;;;20.39;100.00
76358;BME280;65185;21.060;105.826;2023-01-10T08:23:26;101643.81;;;20.39;100.00
76358;BME280;65185;21.060;105.826;2023-01-10T08:25:53;101644.94;;;20.38;100.00
76358;BME280;65185;21.060;105.826;2023-01-10T08:28:20;101642.41;;;20.42;100.00
76358;BME280;65185;21.060;105.826;2023-01-10T08:30:46;101645.13;;;20.42;100.00
76358;BME280;65185;21.060;105.826;2023-01-10T08:33:13;101648.16;;;20.40;100.00
76358;BME280;65185;21.060;105.826;2023-01-10T08:35:41;101644.41;;;20.36;100.00
76358;BME280;65185;21.060;105.826;2023-01-10T08:38:09;101651.47;;;20.37;100.00
76358;BME280;65185;21.060;105.826;2023-01-10T08:40:36;101653.69;;;20.35;100.00
76358;BME280;65185;21.060;105.826;2023-01-10T08:43:05;101652.06;;;20.34;100.00
76358;BME280;65185;21.060;105.826;2023-01-10T08:45:32;101642.56;;;20.31;100.00
76358;BME280;65185;21.060;105.826;2023-01-10T08:47:59;101644.47;;;20.31;100.00
76358;BME280;65185;21.060;105.826;2023-01-10T08:50:26;101636.28;;;20.31;100.00
76358;BME280;65185;21.060;105.826;2023-01-10T08:52:55;101639.00;;;20.31;100.00
76358;BME280;65185;21.060;105.826;2023-01-10T08:55:22;101640.09;;;20.30;100.00
76358;BME280;65185;21.060;105.826;2023-01-10T08:57:49;101645.56;;;20.30;100.00
76358;BME280;65185;21.060;105.826;2023-01-10T09:00:16;101638.19;;;20.30;100.00
76358;BME280;65185;21.060;105.826;2023-01-10T09:02:42;101645.56;;;20.30;100.00
76358;BME280;65185;21.060;105.826;2023-01-10T09:05:09;101642.84;;;20.30;100.00
76358;BME280;65185;21.060;105.826;2023-01-10T09:07:37;101639.00;;;20.31;100.00
76358;BME280;65185;21.060;105.826;2023-01-10T09:10:06;101649.09;;;20.30;100.00
76358;BME280;65185;21.060;105.826;2023-01-10T09:12:34;101643.94;;;20.29;100.00
76358;BME280;65185;21.060;105.826;2023-01-10T09:15:19;101642.94;;;20.25;100.00
76358;BME280;65185;21.060;105.826;2023-01-10T09:18:10;101638.88;;;20.22;100.00
76358;BME280;65185;21.060;105.826;2023-01-10T09:20:39;101635.63;;;20.20;100.00
76358;BME280;65185;21.060;105.826;2023-01-10T09:23:09;101644.94;;;20.19;100.00
76358;BME280;65185;21.060;105.826;2023-01-10T09:25:36;101645.53;;;20.16;100.00
76358;BME280;65185;21.060;105.826;2023-01-10T09:28:04;101639.25;;;20.16;100.00
76358;BME280;65185;21.060;105.826;2023-01-10T09:30:31;101645.53;;;20.16;100.00
76358;BME280;65185;21.060;105.826;2023-01-10T09:32:58;101649.13;;;20.12;100.00
76358;BME280;65185;21.060;105.826;2023-01-10T09:35:29;101653.81;;;20.11;100.00
76358;BME280;65185;21.060;105.826;2023-01-10T09:37:58;101651.38;;;20.10;100.00
76358;BME280;65185;21.060;105.826;2023-01-10T09:40:52;101651.38;;;20.10;100.00
76358;BME280;65185;21.060;105.826;2023-01-10T09:43:34;101646.50;;;20.07;100.00
76358;BME280;65185;21.060;105.826;2023-01-10T09:51:57;101653.72;;;19.98;100.00
76358;BME280;65185;21.060;105.826;2023-01-10T09:54:41;101647.47;;;19.97;100.00
76358;BME280;65185;21.060;105.826;2023-01-10T09:57:19;101656.47;;;19.98;100.00
76358;BME280;65185;21.060;105.826;2023-01-10T09:59:47;101649.38;;;19.97;100.00
76358;BME280;65185;21.060;105.826;2023-01-10T10:02:24;101647.25;;;19.93;100.00
76358;BME280;65185;21.060;105.826;2023-01-10T10:05:03;101654.91;;;19.91;100.00
76358;BME280;65185;21.060;105.826;2023-01-10T10:07:33;101663.69;;;19.88;100.00
76358;BME280;65185;21.060;105.826;2023-01-10T10:10:00;101661.53;;;19.85;100.00
76358;BME280;65185;21.060;105.826;2023-01-10T10:12:46;101659.91;;;19.84;100.00
76358;BME280;65185;21.060;105.826;2023-01-10T10:15:28;101659.09;;;19.84;100.00
76358;BME280;65185;21.060;105.826;2023-01-10T10:31:48;101671.50;;;19.76;100.00
76358;BME280;65185;21.060;105.826;2023-01-10T10:39:56;101679.16;;;19.74;100.00
76358;BME280;65185;21.060;105.826;2023-01-10T10:42:32;101687.31;;;19.74;100.00
76358;BME280;65185;21.060;105.826;2023-01-10T10:45:14;101688.41;;;19.73;100.00
76358;BME280;65185;21.060;105.826;2023-01-10T10:47:45;101693.88;;;19.73;100.00
76358;BME280;65185;21.060;105.826;2023-01-10T10:52:51;101700.94;;;19.74;100.00
76358;BME280;65185;21.060;105.826;2023-01-10T10:55:30;101691.97;;;19.74;100.00
76358;BME280;65185;21.060;105.826;2023-01-10T10:57:58;101693.59;;;19.75;100.00
76358;BME280;65185;21.060;105.826;2023-01-10T11:00:27;101700.66;;;19.76;100.00
76358;BME280;65185;21.060;105.826;2023-01-10T11:05:36;101706.94;;;19.76;100.00
76358;BME280;65185;21.060;105.826;2023-01-10T11:08:07;101710.75;;;19.75;100.00
76358;BME280;65185;21.060;105.826;2023-01-10T11:10:39;101705.03;;;19.77;100.00
76358;BME280;65185;21.060;105.826;2023-01-10T11:15:50;101710.75;;;19.75;100.00
76358;BME280;65185;21.060;105.826;2023-01-10T11:18:20;101709.72;;;19.71;100.00
76358;BME280;65185;21.060;105.826;2023-01-10T11:21:03;101715.19;;;19.71;100.00
76358;BME280;65185;21.060;105.826;2023-01-10T11:23:57;101712.75;;;19.70;100.00
76358;BME280;65185;21.060;105.826;2023-01-10T11:29:14;101720.16;;;19.64;100.00
76358;BME280;65185;21.060;105.826;2023-01-10T11:31:40;101722.69;;;19.61;100.00
76358;BME280;65185;21.060;105.826;2023-01-10T11:34:24;101724.59;;;19.60;100.00
76358;BME280;65185;21.060;105.826;2023-01-10T11:39:44;101728.34;;;19.64;100.00
76358;BME280;65185;21.060;105.826;2023-01-10T11:42:37;101726.22;;;19.61;100.00
76358;BME280;65185;21.060;105.826;2023-01-10T11:47:56;101741.50;;;19.57;100.00
76358;BME280;65185;21.060;105.826;2023-01-10T11:50:28;101742.59;;;19.56;100.00
76358;BME280;65185;21.060;105.826;2023-01-10T11:52:57;101751.59;;;19.57;100.00
76358;BME280;65185;21.060;105.826;2023-01-10T11:55:29;101751.09;;;19.55;100.00
76358;BME280;65185;21.060;105.826;2023-01-10T11:58:17;101753.81;;;19.55;100.00
76358;BME280;65185;21.060;105.826;2023-01-10T12:00:46;101751.66;;;19.51;100.00
76358;BME280;65185;21.060;105.826;2023-01-10T12:06:03;101757.69;;;19.48;100.00
76358;BME280;65185;21.060;105.826;2023-01-10T12:08:38;101772.13;;;19.49;100.00
76358;BME280;65185;21.060;105.826;2023-01-10T12:11:30;101771.59;;;19.47;100.00
76358;BME280;65185;21.060;105.826;2023-01-10T12:14:00;101771.88;;;19.45;100.00
76358;BME280;65185;21.060;105.826;2023-01-10T12:16:32;101780.34;;;19.44;100.00
76358;BME280;65185;21.060;105.826;2023-01-10T12:19:11;101781.50;;;19.38;100.00
76358;BME280;65185;21.060;105.826;2023-01-10T12:21:42;101775.50;;;19.36;100.00
76358;BME280;65185;21.060;105.826;2023-01-10T12:26:49;101783.41;;;19.37;100.00
76358;BME280;65185;21.060;105.826;2023-01-10T12:29:27;101783.69;;;19.36;100.00
76358;BME280;65185;21.060;105.826;2023-01-10T12:31:56;101789.72;;;19.33;100.00
76358;BME280;65185;21.060;105.826;2023-01-10T12:34:39;101782.91;;;19.30;100.00
76358;BME280;65185;21.060;105.826;2023-01-10T12:40:16;101790.81;;;19.32;100.00
76358;BME280;65185;21.060;105.826;2023-01-10T12:42:58;101787.28;;;19.31;100.00
76358;BME280;65185;21.060;105.826;2023-01-10T12:46:26;101787.84;;;19.28;100.00
76358;BME280;65185;21.060;105.826;2023-01-10T12:49:12;101795.72;;;19.30;100.00
76358;BME280;65185;21.060;105.826;2023-01-10T12:51:44;101796.53;;;19.30;100.00
76358;BME280;65185;21.060;105.826;2023-01-10T12:54:32;101797.88;;;19.33;100.00
76358;BME280;65185;21.060;105.826;2023-01-10T12:57:02;101807.16;;;19.32;100.00
76358;BME280;65185;21.060;105.826;2023-01-10T12:59:35;101801.44;;;19.28;100.00
76358;BME280;65185;21.060;105.826;2023-01-10T13:02:08;101807.72;;;19.29;100.00
76358;BME280;65185;21.060;105.826;2023-01-10T13:04:39;101800.91;;;19.31;100.00
76358;BME280;65185;21.060;105.826;2023-01-10T13:07:10;101801.13;;;19.35;100.00
76358;BME280;65185;21.060;105.826;2023-01-10T13:09:41;101813.09;;;19.34;100.00
76358;BME280;65185;21.060;105.826;2023-01-10T13:12:10;101807.16;;;19.32;100.00
76358;BME280;65185;21.060;105.826;2023-01-10T13:14:54;101804.44;;;19.32;100.00
76358;BME280;65185;21.060;105.826;2023-01-10T13:17:41;101814.75;;;19.35;100.00
76358;BME280;65185;21.060;105.826;2023-01-10T13:20:24;101820.50;;;19.33;100.00
76358;BME280;65185;21.060;105.826;2023-01-10T13:22:58;101820.50;;;19.33;100.00
76358;BME280;65185;21.060;105.826;2023-01-10T13:25:35;101829.44;;;19.34;100.00
76358;BME280;65185;21.060;105.826;2023-01-10T13:28:26;101821.28;;;19.34;100.00
76358;BME280;65185;21.060;105.826;2023-01-10T13:30:57;101820.19;;;19.35;100.00
76358;BME280;65185;21.060;105.826;2023-01-10T13:33:31;101821.28;;;19.34;100.00
76358;BME280;65185;21.060;105.826;2023-01-10T13:36:26;101818.34;;;19.30;100.00
76358;BME280;65185;21.060;105.826;2023-01-10T13:38:58;101823.22;;;19.33;100.00
76358;BME280;65185;21.060;105.826;2023-01-10T13:57:58;101810.63;;;19.37;100.00
76358;BME280;65185;21.060;105.826;2023-01-10T14:03:57;101818.00;;;19.37;100.00
76358;BME280;65185;21.060;105.826;2023-01-10T14:14:22;101828.91;;;19.37;100.00
76358;BME280;65185;21.060;105.826;2023-01-10T14:17:08;101822.63;;;19.36;100.00
76358;BME280;65185;21.060;105.826;2023-01-10T14:19:38;101823.72;;;19.35;100.00
76358;BME280;65185;21.060;105.826;2023-01-10T14:22:28;101824.53;;;19.36;100.00
76358;BME280;65185;21.060;105.826;2023-01-10T14:25:06;101821.81;;;19.36;100.00
76358;BME280;65185;21.060;105.826;2023-01-10T14:27:45;101824.53;;;19.36;100.00
76358;BME280;65185;21.060;105.826;2023-01-10T14:32:50;101823.97;;;19.39;100.00
76358;BME280;65185;21.060;105.826;2023-01-10T14:35:21;101825.06;;;19.38;100.00
76358;BME280;65185;21.060;105.826;2023-01-10T14:37:58;101830.53;;;19.38;100.00
76358;BME280;65185;21.060;105.826;2023-01-10T14:40:33;101827.81;;;19.38;100.00
76358;BME280;65185;21.060;105.826;2023-01-10T14:43:17;101825.91;;;19.38;100.00
76358;BME280;65185;21.060;105.826;2023-01-10T14:45:57;101824.25;;;19.37;100.00